Time;durP1;ratioP1;P1;durP2;ratioP2;P2;SDS_P1;SDS_P2;PMS_P1;PMS_P2;Temp;Humidity;BMP_temperature;BMP_pressure;BME280_temperature;BME280_humidity;BME280_pressure;Samples;Min_cycle;Max_cycle;Signal;HPM_P1;HPM_P2
2021/07/01 00:04:10;;;;;;;15.43;8.77;;;;;;;15.54;91.66;100836.75;10148267;28;20057;-70
2021/07/01 00:09:14;;;;;;;11.45;7.32;;;;;;;15.42;92.32;100837.59;10150366;28;20073;-69
2021/07/01 00:14:12;;;;;;;9.88;6.50;;;;;;;15.56;92.17;100831.72;10145390;28;20078;-70
2021/07/01 00:19:08;;;;;;;10.25;6.95;;;;;;;15.53;92.30;100824.94;10143085;28;20066;-70
2021/07/01 00:24:05;;;;;;;9.65;6.95;;;;;;;15.60;91.96;100821.59;10140413;28;20751;-69
2021/07/01 00:29:02;;;;;;;11.68;8.18;;;;;;;15.64;92.56;100818.94;10146897;28;20076;-69
2021/07/01 00:33:58;;;;;;;12.32;8.25;;;;;;;15.65;92.22;100821.34;10148665;28;20050;-69
2021/07/01 00:38:55;;;;;;;13.55;9.07;;;;;;;15.65;91.91;100817.78;10125382;28;20050;-69
2021/07/01 00:43:52;;;;;;;11.57;8.60;;;;;;;15.67;92.29;100821.78;10146858;28;20038;-68
2021/07/01 00:48:48;;;;;;;15.95;9.90;;;;;;;15.71;92.04;100817.22;10150274;28;20131;-68
2021/07/01 00:53:45;;;;;;;16.15;9.90;;;;;;;15.70;91.76;100810.09;10148198;28;20117;-68
2021/07/01 00:58:42;;;;;;;16.88;11.32;;;;;;;15.71;91.55;100811.72;10150191;28;20082;-68
2021/07/01 01:03:39;;;;;;;18.92;12.57;;;;;;;15.66;91.43;100809.16;10137715;28;20051;-68
2021/07/01 01:08:35;;;;;;;21.95;14.38;;;;;;;15.62;92.09;100813.78;10147742;28;20042;-69
2021/07/01 01:13:32;;;;;;;25.38;16.20;;;;;;;15.59;92.19;100808.94;10142507;28;20070;-69
2021/07/01 01:18:29;;;;;;;24.35;15.88;;;;;;;15.67;91.79;100805.25;10149150;28;20077;-69
2021/07/01 01:23:37;;;;;;;22.45;16.13;;;;;;;15.62;91.96;100805.50;10156007;28;20058;-70
2021/07/01 01:33:50;;;;;;;27.00;16.85;;;;;;;15.56;91.64;100793.13;9013300;26;20162;-70
2021/07/01 01:39:05;;;;;;;31.95;18.48;;;;;;;15.49;92.17;100790.16;10258461;23;20070;-70
2021/07/01 01:44:01;;;;;;;29.13;18.85;;;;;;;15.45;92.41;100794.75;10141068;28;20463;-70
2021/07/01 01:48:58;;;;;;;27.98;17.92;;;;;;;15.47;92.56;100786.94;10129580;28;20134;-69
2021/07/01 01:53:55;;;;;;;33.22;20.45;;;;;;;15.43;92.63;100783.28;10119975;28;20146;-69
2021/07/01 01:58:51;;;;;;;30.08;19.42;;;;;;;15.40;93.00;100789.50;10122575;28;20466;-68
2021/07/01 02:03:47;;;;;;;34.60;21.65;;;;;;;15.41;92.94;100780.06;10111949;28;20078;-69
2021/07/01 02:08:44;;;;;;;32.22;20.60;;;;;;;15.49;92.83;100776.38;10108661;28;20102;-69
2021/07/01 02:13:40;;;;;;;31.00;21.70;;;;;;;15.52;92.68;100767.41;10104491;28;20055;-71
2021/07/01 02:18:37;;;;;;;34.88;21.80;;;;;;;15.52;92.76;100770.16;10112588;28;20047;-70
2021/07/01 02:23:33;;;;;;;33.25;22.80;;;;;;;15.36;93.35;100779.19;10102300;28;20058;-71
2021/07/01 02:28:30;;;;;;;37.85;22.85;;;;;;;15.39;93.10;100787.88;10100938;28;20046;-70
2021/07/01 02:33:27;;;;;;;31.85;21.23;;;;;;;15.41;93.32;100785.59;10101071;28;20055;-71
2021/07/01 02:38:24;;;;;;;30.83;21.13;;;;;;;15.41;92.96;100788.34;10101460;28;20070;-70
2021/07/01 02:43:23;;;;;;;35.90;22.70;;;;;;;15.43;93.19;100788.78;10090684;28;20100;-71
2021/07/01 02:48:20;;;;;;;33.78;21.67;;;;;;;15.43;93.05;100788.78;10105858;28;20074;-70
2021/07/01 02:53:18;;;;;;;36.50;22.92;;;;;;;15.44;93.15;100779.41;10053715;28;20461;-71
2021/07/01 02:58:15;;;;;;;30.63;21.15;;;;;;;15.49;93.05;100774.44;10065412;28;20505;-69
2021/07/01 03:03:24;;;;;;;34.85;23.75;;;;;;;15.52;92.95;100783.94;10048484;28;20098;-69
2021/07/01 03:08:24;;;;;;;36.53;24.20;;;;;;;15.54;92.81;100781.66;10045229;28;20055;-70
2021/07/01 03:13:21;;;;;;;35.58;21.77;;;;;;;15.42;92.75;100778.94;10041408;28;20047;-70
2021/07/01 03:18:19;;;;;;;38.00;22.35;;;;;;;15.45;92.89;100783.75;10044816;28;20047;-69
2021/07/01 03:23:24;;;;;;;34.55;21.92;;;;;;;15.42;92.91;100776.19;10056609;28;20059;-70
2021/07/01 03:28:51;;;;;;;34.85;22.70;;;;;;;15.48;93.07;100775.59;10028099;28;20183;-70
2021/07/01 03:33:51;;;;;;;33.47;22.58;;;;;;;15.51;93.07;100779.59;10016798;28;20529;-72
2021/07/01 03:38:48;;;;;;;31.08;20.65;;;;;;;15.49;93.41;100773.63;10044555;28;20122;-70
2021/07/01 03:43:50;;;;;;;31.55;21.27;;;;;;;15.48;93.38;100769.25;10047377;28;20135;-70
2021/07/01 03:48:46;;;;;;;28.50;18.42;;;;;;;15.52;93.67;100770.16;10043980;28;20078;-70
2021/07/01 03:54:13;;;;;;;30.70;20.25;;;;;;;15.58;93.41;100769.56;10051774;28;20127;-70
2021/07/01 03:59:28;;;;;;;20.98;15.27;;;;;;;15.60;93.20;100772.00;10050992;28;20146;-69
2021/07/01 04:04:25;;;;;;;24.30;15.73;;;;;;;15.58;92.76;100775.09;10042568;28;20143;-69
2021/07/01 04:09:21;;;;;;;18.88;14.45;;;;;;;15.59;92.59;100770.38;10056443;28;20074;-69
2021/07/01 04:20:37;;;;;;;18.27;13.15;;;;;;;15.58;91.98;100769.56;10033599;28;20051;-69
2021/07/01 04:25:35;;;;;;;17.20;12.52;;;;;;;15.50;91.82;100766.97;10032007;28;20098;-69
2021/07/01 04:30:34;;;;;;;17.08;11.85;;;;;;;15.55;91.84;100773.03;10032217;28;20058;-69
2021/07/01 04:35:30;;;;;;;14.98;10.63;;;;;;;15.55;91.44;100775.00;10060752;28;20043;-67
2021/07/01 04:40:27;;;;;;;13.27;9.55;;;;;;;15.46;91.52;100771.59;10059374;28;20513;-68
2021/07/01 04:45:24;;;;;;;11.63;8.50;;;;;;;15.45;91.20;100780.97;10061188;28;20051;-67
2021/07/01 04:50:21;;;;;;;10.77;8.05;;;;;;;15.47;91.40;100784.19;10046957;28;20059;-67
2021/07/01 04:55:17;;;;;;;10.73;8.00;;;;;;;15.49;91.37;100787.41;10067232;28;20080;-68
2021/07/01 05:00:14;;;;;;;7.63;6.07;;;;;;;15.49;91.55;100784.66;10047223;28;20134;-67
2021/07/01 05:05:10;;;;;;;8.57;5.95;;;;;;;15.49;90.92;100790.16;10056132;28;20490;-65
2021/07/01 05:10:08;;;;;;;7.55;6.00;;;;;;;15.43;91.49;100789.59;10052908;28;20091;-67
2021/07/01 05:15:05;;;;;;;7.65;5.65;;;;;;;15.49;91.41;100788.22;10057974;28;20087;-67
2021/07/01 05:20:03;;;;;;;8.38;6.03;;;;;;;15.45;91.33;100789.25;10059443;28;20409;-66
2021/07/01 05:25:00;;;;;;;7.25;5.72;;;;;;;15.47;91.68;100789.72;10057787;28;20648;-68
2021/07/01 05:29:56;;;;;;;7.65;5.50;;;;;;;15.51;91.54;100790.63;10057230;28;20076;-66
2021/07/01 05:34:58;;;;;;;6.38;4.80;;;;;;;15.52;91.86;100792.22;10056013;28;20082;-68
2021/07/01 05:39:55;;;;;;;10.30;6.53;;;;;;;15.55;91.54;100795.09;10065645;28;20044;-67
2021/07/01 05:44:51;;;;;;;8.32;5.97;;;;;;;15.55;91.73;100802.56;10049275;28;20043;-67
2021/07/01 05:49:48;;;;;;;8.00;5.32;;;;;;;15.57;91.58;100808.50;10045251;28;20207;-68
2021/07/01 05:54:57;;;;;;;6.95;4.97;;;;;;;15.55;91.56;100797.84;10056859;28;20070;-67
2021/07/01 05:59:54;;;;;;;9.65;5.40;;;;;;;15.58;92.04;100812.88;10053804;28;20043;-67
2021/07/01 06:04:51;;;;;;;8.50;5.25;;;;;;;15.61;92.47;100806.66;10045935;28;20146;-68
2021/07/01 06:09:51;;;;;;;8.35;4.82;;;;;;;15.65;92.45;100807.56;10047066;28;20567;-69
2021/07/01 06:14:53;;;;;;;5.65;3.33;;;;;;;15.69;92.69;100802.16;10063706;28;20058;-69
2021/07/01 06:19:51;;;;;;;5.97;3.70;;;;;;;15.68;92.59;100800.53;10059301;28;20630;-68
2021/07/01 06:24:55;;;;;;;5.53;3.30;;;;;;;15.74;92.39;100805.50;10054018;28;20107;-68
2021/07/01 06:29:52;;;;;;;5.43;3.10;;;;;;;15.82;92.45;100805.69;10061776;28;20040;-68
2021/07/01 06:34:49;;;;;;;5.72;2.75;;;;;;;15.87;92.16;100808.19;10050711;28;20047;-68
2021/07/01 06:39:47;;;;;;;4.80;2.45;;;;;;;15.96;92.14;100806.06;10034755;28;20079;-67
2021/07/01 06:44:44;;;;;;;4.65;2.50;;;;;;;16.00;91.75;100812.50;10056169;28;20051;-68
2021/07/01 06:49:42;;;;;;;6.07;3.17;;;;;;;15.95;91.69;100810.00;10059087;28;20171;-68
2021/07/01 06:54:40;;;;;;;5.13;3.17;;;;;;;15.91;91.86;100820.13;10064328;28;20106;-68
2021/07/01 06:59:38;;;;;;;5.13;3.53;;;;;;;15.89;92.13;100822.44;10060880;28;20131;-67
2021/07/01 07:04:35;;;;;;;5.05;3.50;;;;;;;15.90;92.61;100824.06;10056942;28;20114;-67
2021/07/01 07:09:32;;;;;;;5.28;3.55;;;;;;;15.93;93.19;100823.34;10049093;28;20561;-69
2021/07/01 07:14:28;;;;;;;6.07;3.78;;;;;;;16.04;93.21;100824.44;10064538;28;20051;-69
2021/07/01 07:19:27;;;;;;;5.30;3.47;;;;;;;16.11;93.11;100832.91;10051112;28;20048;-70
2021/07/01 07:24:28;;;;;;;5.55;3.53;;;;;;;16.16;93.05;100832.63;10050085;28;20111;-69
2021/07/01 07:29:36;;;;;;;9.95;3.95;;;;;;;16.23;93.32;100828.47;10059758;28;20055;-69
2021/07/01 07:34:33;;;;;;;10.77;4.18;;;;;;;16.27;93.55;100832.13;10056388;28;20522;-68
2021/07/01 07:39:32;;;;;;;6.28;3.83;;;;;;;16.31;93.40;100844.06;10054981;28;20052;-68
2021/07/01 07:44:29;;;;;;;6.07;4.30;;;;;;;16.37;93.53;100835.16;10054003;28;20081;-69
2021/07/01 07:49:26;;;;;;;5.63;3.95;;;;;;;16.41;93.33;100838.81;10061273;28;20102;-68
2021/07/01 07:54:25;;;;;;;5.72;4.13;;;;;;;16.48;93.48;100842.94;10071530;28;20055;-69
2021/07/01 07:59:27;;;;;;;6.43;4.50;;;;;;;16.58;93.89;100837.66;10079335;28;20093;-68
2021/07/01 08:04:26;;;;;;;8.15;5.50;;;;;;;16.72;94.24;100830.91;10055902;28;20514;-70
2021/07/01 08:09:28;;;;;;;8.65;5.60;;;;;;;16.79;93.76;100837.44;10059716;28;20117;-69
2021/07/01 08:14:25;;;;;;;7.17;5.40;;;;;;;16.89;93.55;100836.09;10048643;28;20134;-69
2021/07/01 08:19:22;;;;;;;10.10;6.35;;;;;;;16.94;93.75;100846.06;10049154;28;20055;-70
2021/07/01 08:24:18;;;;;;;9.23;7.00;;;;;;;16.99;93.97;100841.06;10057441;28;20071;-68
2021/07/01 08:29:17;;;;;;;8.35;6.55;;;;;;;17.03;93.66;100846.66;10043676;28;20113;-70
2021/07/01 08:34:17;;;;;;;10.45;8.40;;;;;;;16.99;93.89;100851.34;10067522;28;20464;-68
2021/07/01 08:39:13;;;;;;;9.27;7.32;;;;;;;17.05;93.98;100847.13;10067047;28;20142;-70
2021/07/01 08:44:17;;;;;;;9.57;7.55;;;;;;;17.06;93.88;100847.91;10066882;28;20410;-69
2021/07/01 08:49:30;;;;;;;11.63;7.65;;;;;;;17.12;94.06;100858.34;10053044;28;20561;-67
2021/07/01 08:54:31;;;;;;;9.90;8.05;;;;;;;17.19;93.90;100857.69;10066420;28;20083;-68
2021/07/01 08:59:59;;;;;;;12.75;8.63;;;;;;;17.25;94.15;100850.75;10071058;28;20118;-69
2021/07/01 09:04:57;;;;;;;13.45;9.30;;;;;;;17.24;93.67;100857.41;10045883;28;20054;-68
2021/07/01 09:09:56;;;;;;;15.90;11.23;;;;;;;17.28;94.26;100852.78;10045409;28;20049;-68
2021/07/01 09:15:08;;;;;;;11.30;9.85;;;;;;;17.35;94.96;100863.19;10032125;28;20113;-68
2021/07/01 09:20:08;;;;;;;13.73;9.55;;;;;;;17.37;95.01;100853.38;10064093;28;20137;-68
2021/07/01 09:25:05;;;;;;;14.02;12.45;;;;;;;17.42;95.04;100869.69;10058060;28;20717;-67
2021/07/01 09:30:02;;;;;;;11.80;9.93;;;;;;;17.45;94.96;100868.97;10071775;28;20473;-68
2021/07/01 09:34:59;;;;;;;10.82;9.00;;;;;;;17.51;95.08;100872.25;10058909;28;20498;-67
2021/07/01 09:39:55;;;;;;;13.98;9.55;;;;;;;17.60;95.34;100874.81;10059141;28;20051;-67
2021/07/01 09:44:58;;;;;;;13.05;9.18;;;;;;;17.71;95.47;100875.84;10056328;28;20048;-67
2021/07/01 09:49:55;;;;;;;9.80;8.80;;;;;;;17.77;95.23;100874.38;10058449;28;20063;-68
2021/07/01 09:55:00;;;;;;;11.90;9.10;;;;;;;17.75;95.57;100879.47;10064247;28;20137;-68
2021/07/01 10:00:10;;;;;;;11.38;9.30;;;;;;;17.80;95.29;100872.84;10067254;28;20525;-68
2021/07/01 10:05:24;;;;;;;16.35;9.15;;;;;;;17.81;95.21;100880.81;10049320;28;20047;-68
2021/07/01 10:10:22;;;;;;;11.60;9.73;;;;;;;17.93;95.38;100882.66;10064835;28;20066;-69
2021/07/01 10:15:34;;;;;;;19.58;9.70;;;;;;;18.03;95.18;100882.06;10056806;28;20125;-68
2021/07/01 10:20:35;;;;;;;16.27;9.70;;;;;;;18.20;95.25;100880.03;10064969;28;20051;-68
2021/07/01 10:25:33;;;;;;;11.43;7.95;;;;;;;18.26;95.00;100882.13;10056835;28;20077;-69
2021/07/01 10:30:54;;;;;;;11.30;6.93;;;;;;;18.29;93.92;100889.69;10045061;28;20100;-68
2021/07/01 10:36:01;;;;;;;11.23;8.32;;;;;;;18.40;94.14;100884.34;10062673;28;20043;-70
2021/07/01 10:41:01;;;;;;;12.52;7.75;;;;;;;18.50;92.85;100888.50;10047892;28;20060;-68
2021/07/01 10:46:35;;;;;;;9.52;7.10;;;;;;;18.63;91.13;100898.22;10049023;28;20066;-69
2021/07/01 10:52:07;;;;;;;10.60;7.00;;;;;;;18.78;91.13;100898.50;10041116;28;20054;-66
2021/07/01 10:58:14;;;;;;;10.23;8.00;;;;;;;18.92;90.99;100898.75;10054877;28;20461;-68
2021/07/01 11:04:25;;;;;;;9.95;6.22;;;;;;;19.00;89.31;100894.91;10048048;28;20047;-70
2021/07/01 11:09:57;;;;;;;10.85;6.57;;;;;;;19.02;89.06;100889.81;10029004;28;20061;-69
2021/07/01 11:15:13;;;;;;;11.68;7.80;;;;;;;19.11;89.58;100900.63;10054531;28;20062;-69
2021/07/01 11:20:27;;;;;;;9.50;7.35;;;;;;;19.23;90.32;100896.84;10062140;28;20047;-70
2021/07/01 11:25:31;;;;;;;9.05;6.63;;;;;;;19.29;89.97;100892.59;10064920;28;20051;-70
2021/07/01 11:31:05;;;;;;;9.00;6.53;;;;;;;19.36;88.33;100900.25;10043897;28;20055;-70
2021/07/01 11:36:22;;;;;;;10.55;7.05;;;;;;;19.47;88.31;100902.00;10035823;28;20069;-69
2021/07/01 11:41:56;;;;;;;9.48;6.30;;;;;;;19.64;84.07;100900.63;10045672;28;20044;-69
2021/07/01 11:46:59;;;;;;;8.70;5.35;;;;;;;19.63;83.48;100909.31;10039967;28;20103;-68
2021/07/01 11:57:28;;;;;;;;;;;;;;;20.12;83.72;100902.84;10025288;28;20044;-70
2021/07/01 12:03:23;;;;;;;8.18;5.07;;;;;;;20.46;83.20;100908.38;10043984;28;19922;-69
2021/07/01 12:08:24;;;;;;;7.63;5.05;;;;;;;20.56;81.41;100899.38;10028733;28;20062;-69
2021/07/01 12:13:34;;;;;;;8.50;4.85;;;;;;;20.54;80.28;100904.50;10070887;28;20421;-69
2021/07/01 12:18:47;;;;;;;8.80;5.25;;;;;;;20.38;81.67;100916.63;10045299;28;20058;-69
2021/07/01 12:30:04;;;;;;;8.30;5.20;;;;;;;19.91;84.98;100915.31;10025904;28;20514;-69
2021/07/01 12:35:58;;;;;;;6.93;5.47;;;;;;;19.82;84.01;100928.66;10031475;28;20062;-69
2021/07/01 12:41:06;;;;;;;6.93;5.55;;;;;;;19.78;84.55;100929.78;10011293;28;20051;-69
2021/07/01 12:46:45;;;;;;;8.23;5.25;;;;;;;19.75;85.37;100923.00;10039927;28;20051;-69
2021/07/01 12:51:57;;;;;;;8.77;5.93;;;;;;;19.65;84.51;100931.94;10046090;28;20058;-70
2021/07/01 12:57:17;;;;;;;10.05;7.22;;;;;;;19.48;84.19;100934.06;10043544;28;20047;-71
2021/07/01 13:02:29;;;;;;;9.82;5.90;;;;;;;19.35;84.16;100943.78;10042380;28;20139;-69
2021/07/01 13:13:16;;;;;;;10.05;7.68;;;;;;;19.50;85.12;100928.97;10059345;28;20078;-70
2021/07/01 13:18:27;;;;;;;10.38;6.35;;;;;;;19.69;85.76;100949.47;10071286;28;20573;-69
2021/07/01 13:23:36;;;;;;;8.93;5.72;;;;;;;19.83;85.92;100941.34;10036418;28;20048;-69
2021/07/01 13:29:16;;;;;;;7.10;5.20;;;;;;;20.00;84.75;100941.94;10028566;28;20058;-70
2021/07/01 13:34:26;;;;;;;7.35;4.85;;;;;;;20.11;83.63;100946.47;10049985;28;20131;-70
2021/07/01 13:39:57;;;;;;;12.07;8.82;;;;;;;20.11;83.39;100952.00;10052605;28;20138;-69
2021/07/01 13:45:21;;;;;;;9.18;5.57;;;;;;;19.93;82.15;100951.78;10059013;28;20054;-67
2021/07/01 13:50:57;;;;;;;9.82;6.13;;;;;;;19.86;83.55;100950.88;10070429;28;20495;-69
2021/07/01 13:56:05;;;;;;;9.55;7.65;;;;;;;19.75;83.96;100956.31;10062214;28;20051;-67
2021/07/01 14:01:41;;;;;;;10.88;8.75;;;;;;;19.69;85.65;100963.34;10064503;28;20509;-68
2021/07/01 14:06:43;;;;;;;11.38;7.47;;;;;;;19.54;86.28;100976.97;10058291;28;20044;-69
2021/07/01 14:11:56;;;;;;;7.82;5.20;;;;;;;19.36;85.54;100978.66;10044122;28;20055;-68
2021/07/01 14:16:59;;;;;;;12.05;4.93;;;;;;;19.37;86.12;100988.56;10043929;28;20058;-67
2021/07/01 14:22:25;;;;;;;10.95;4.68;;;;;;;19.31;86.88;100998.38;10062826;28;20750;-69
2021/07/01 14:27:34;;;;;;;8.32;4.35;;;;;;;19.16;86.95;101002.06;10060273;28;20050;-68
2021/07/01 14:32:37;;;;;;;7.03;4.35;;;;;;;19.14;87.27;100989.38;10047453;28;20051;-67
2021/07/01 14:37:49;;;;;;;10.57;5.30;;;;;;;19.21;88.06;100982.34;10049481;28;20558;-69
2021/07/01 14:43:06;;;;;;;6.43;4.90;;;;;;;19.30;88.38;100986.47;10047974;28;20419;-67
2021/07/01 14:48:40;;;;;;;7.30;4.70;;;;;;;19.35;88.14;100988.13;10053792;28;20086;-67
2021/07/01 14:53:43;;;;;;;7.40;4.72;;;;;;;19.49;87.74;101005.00;10052628;28;20099;-68
2021/07/01 14:58:54;;;;;;;7.68;5.07;;;;;;;19.66;88.29;100998.16;10051696;28;20086;-66
2021/07/01 15:04:32;;;;;;;7.88;5.40;;;;;;;19.83;88.36;101007.94;10045535;28;20507;-67
2021/07/01 15:09:45;;;;;;;7.88;5.80;;;;;;;19.93;88.61;101007.28;10037836;28;20396;-67
2021/07/01 15:14:56;;;;;;;9.50;5.10;;;;;;;20.04;88.52;101014.97;10050793;28;20078;-68
2021/07/01 15:20:12;;;;;;;8.02;5.22;;;;;;;20.12;88.46;101019.41;10053243;28;20574;-67
2021/07/01 15:25:15;;;;;;;7.93;5.70;;;;;;;20.10;88.27;101022.59;10046649;28;20150;-66
2021/07/01 15:30:18;;;;;;;12.77;5.20;;;;;;;20.06;88.44;101020.94;10034608;28;20623;-67
2021/07/01 15:35:24;;;;;;;8.00;4.72;;;;;;;20.01;88.18;101029.59;10051155;28;20116;-64
2021/07/01 15:40:33;;;;;;;8.73;5.63;;;;;;;19.93;88.31;101039.78;10047075;28;20047;-67
2021/07/01 15:45:43;;;;;;;14.13;5.90;;;;;;;19.81;88.45;101051.88;10038444;28;20253;-66
2021/07/01 15:50:50;;;;;;;9.75;4.97;;;;;;;19.76;88.68;101049.44;10041091;28;20054;-70
2021/07/01 15:55:53;;;;;;;12.80;5.90;;;;;;;19.73;88.95;101059.31;10030807;28;20047;-67
2021/07/01 16:00:58;;;;;;;10.32;6.00;;;;;;;19.76;88.86;101052.22;10039932;28;20559;-68
2021/07/01 16:06:07;;;;;;;12.73;5.72;;;;;;;19.80;87.92;101053.06;10040110;28;20047;-69
2021/07/01 16:11:06;;;;;;;13.10;6.30;;;;;;;19.86;87.68;101062.66;10039374;28;20538;-69
2021/07/01 16:16:17;;;;;;;8.23;4.90;;;;;;;19.89;87.48;101056.38;9921275;29;20064;-68
2021/07/01 16:21:18;;;;;;;8.93;4.78;;;;;;;19.94;87.00;101047.75;9943174;29;20514;-67
2021/07/01 16:26:34;;;;;;;10.98;5.15;;;;;;;19.94;86.81;101046.94;9935239;29;20060;-67
2021/07/01 16:31:33;;;;;;;12.82;5.20;;;;;;;19.88;85.62;101049.22;9930412;29;20104;-68
2021/07/01 16:36:33;;;;;;;11.48;5.35;;;;;;;19.85;84.86;101047.19;9927761;29;20144;-69
2021/07/01 16:41:34;;;;;;;10.30;5.50;;;;;;;19.86;83.48;101043.25;9924922;29;20049;-70
2021/07/01 16:46:38;;;;;;;9.00;5.50;;;;;;;19.91;82.48;101054.03;10004396;28;20569;-68
2021/07/01 16:51:47;;;;;;;8.88;6.47;;;;;;;19.76;82.56;101053.00;10049811;28;20110;-69
2021/07/01 16:56:51;;;;;;;9.80;5.22;;;;;;;19.68;82.50;101061.56;10034738;28;20103;-69
2021/07/01 17:01:51;;;;;;;9.43;5.97;;;;;;;19.57;83.72;101066.16;10043238;28;20503;-69
2021/07/01 17:06:54;;;;;;;13.30;8.73;;;;;;;19.37;86.35;101077.28;10047964;28;20899;-70
2021/07/01 17:11:53;;;;;;;9.73;7.20;;;;;;;19.25;86.77;101083.00;10036802;28;20035;-69
2021/07/01 17:16:52;;;;;;;10.23;7.72;;;;;;;19.16;87.32;101085.22;10041689;28;20042;-68
2021/07/01 17:21:57;;;;;;;11.60;8.30;;;;;;;18.99;88.95;101081.75;10049938;28;20082;-68
2021/07/01 17:26:56;;;;;;;;;;;;;;;18.88;89.21;101075.19;10049206;28;20051;-68
2021/07/01 17:31:53;;;;;;;9.50;6.07;;;;;;;18.84;88.81;101079.84;10060471;28;19931;-68
2021/07/01 17:36:53;;;;;;;11.73;9.18;;;;;;;18.73;89.47;101085.16;10044265;28;20039;-66
2021/07/01 17:41:50;;;;;;;14.35;8.02;;;;;;;18.78;89.42;101095.19;10053013;28;20444;-69
2021/07/01 17:46:48;;;;;;;11.98;8.00;;;;;;;18.84;89.55;101100.03;10057144;28;20043;-70
2021/07/01 17:51:47;;;;;;;10.48;6.78;;;;;;;20.69;83.12;101097.97;10044239;28;20595;-70
2021/07/01 17:56:47;;;;;;;9.82;5.40;;;;;;;20.25;82.75;101095.75;10034285;28;20051;-69
2021/07/01 18:01:45;;;;;;;11.52;6.82;;;;;;;19.97;81.81;101096.94;10043200;28;20055;-68
2021/07/01 18:06:45;;;;;;;11.63;8.27;;;;;;;19.52;83.88;101109.66;10049840;28;20642;-69
2021/07/01 18:11:42;;;;;;;10.95;8.63;;;;;;;19.37;85.04;101110.56;10051718;28;20134;-66
2021/07/01 18:16:42;;;;;;;10.02;7.30;;;;;;;19.25;85.57;101119.84;10025319;28;20466;-69
2021/07/01 18:21:42;;;;;;;11.38;7.43;;;;;;;19.20;86.28;101119.34;10040182;28;20048;-69
2021/07/01 18:26:41;;;;;;;9.00;6.43;;;;;;;19.20;86.80;101119.34;10038888;28;20102;-67
2021/07/01 18:31:43;;;;;;;11.18;7.28;;;;;;;19.13;86.59;101120.00;10045661;28;20658;-69
2021/07/01 18:36:44;;;;;;;10.83;7.27;;;;;;;19.10;87.24;101123.53;10046001;28;20138;-69
2021/07/01 18:41:44;;;;;;;13.60;9.82;;;;;;;18.98;86.59;101132.78;10043536;28;20491;-68
2021/07/01 18:46:47;;;;;;;11.07;9.50;;;;;;;18.95;87.24;101130.75;10038140;28;20079;-68
2021/07/01 18:51:49;;;;;;;11.83;8.00;;;;;;;18.91;87.63;101139.00;10043268;28;20424;-69
2021/07/01 18:56:50;;;;;;;12.98;8.85;;;;;;;18.89;88.92;101143.28;10052097;28;20432;-69
2021/07/01 19:01:48;;;;;;;12.75;8.90;;;;;;;18.77;89.65;101143.41;10027362;28;20048;-69
2021/07/01 19:06:48;;;;;;;9.00;7.32;;;;;;;18.61;88.92;101138.72;10041225;28;20532;-67
2021/07/01 19:11:49;;;;;;;12.13;7.10;;;;;;;18.47;88.21;101143.91;10023904;28;20090;-68
2021/07/01 19:16:52;;;;;;;14.57;8.20;;;;;;;18.39;88.18;101156.03;10050767;28;20419;-68
2021/07/01 19:21:53;;;;;;;9.27;6.53;;;;;;;18.35;88.97;101161.47;10016210;28;20062;-69
2021/07/01 19:26:55;;;;;;;14.00;8.03;;;;;;;18.29;88.77;101160.94;10045224;28;20103;-68
2021/07/01 19:31:52;;;;;;;11.10;6.63;;;;;;;18.16;88.04;101155.88;10045819;28;20570;-69
2021/07/01 19:36:53;;;;;;;11.05;6.63;;;;;;;18.08;88.31;101165.97;10043032;28;20044;-67
2021/07/01 19:41:57;;;;;;;13.53;7.57;;;;;;;18.10;89.25;101163.63;10055357;28;20707;-70
2021/07/01 19:46:57;;;;;;;10.60;7.78;;;;;;;18.10;89.51;101180.22;10048203;28;20499;-67
2021/07/01 19:52:01;;;;;;;11.23;6.82;;;;;;;18.07;89.92;101181.75;10046240;28;20050;-69
2021/07/01 19:57:05;;;;;;;15.10;8.85;;;;;;;18.08;90.10;101188.13;10035357;28;20154;-73
2021/07/01 20:02:04;;;;;;;11.43;7.90;;;;;;;18.08;90.50;101182.56;10041252;28;20058;-73
2021/07/01 20:07:04;;;;;;;12.05;8.32;;;;;;;18.05;90.65;101183.28;10059114;28;20051;-73
2021/07/01 20:12:05;;;;;;;12.77;7.78;;;;;;;18.00;90.86;101186.31;10040263;28;20051;-74
2021/07/01 20:17:04;;;;;;;12.15;7.65;;;;;;;18.00;90.86;101192.66;10044816;28;20055;-71
2021/07/01 20:22:02;;;;;;;13.18;8.52;;;;;;;17.99;90.65;101187.50;10062040;28;20071;-70
2021/07/01 20:27:00;;;;;;;12.50;8.77;;;;;;;17.92;90.97;101196.41;10036029;28;20070;-71
2021/07/01 20:31:57;;;;;;;10.70;8.05;;;;;;;17.88;90.73;101201.03;10026983;28;20040;-71
2021/07/01 20:36:54;;;;;;;12.55;8.27;;;;;;;17.83;90.94;101204.88;10055217;28;20043;-72
2021/07/01 20:41:54;;;;;;;12.13;7.80;;;;;;;17.79;90.91;101208.66;10050923;28;20451;-72
2021/07/01 20:47:01;;;;;;;11.02;6.97;;;;;;;17.72;90.77;101205.72;10053645;28;20072;-72
2021/07/01 20:51:58;;;;;;;10.77;8.68;;;;;;;17.64;90.65;101218.56;10036332;28;20043;-72
2021/07/01 20:57:01;;;;;;;11.18;8.30;;;;;;;17.56;90.69;101213.97;10054366;28;20066;-71
2021/07/01 21:01:58;;;;;;;13.75;9.18;;;;;;;17.49;90.62;101217.34;10051541;28;20106;-73
2021/07/01 21:06:55;;;;;;;12.27;8.77;;;;;;;17.43;90.66;101225.09;10064222;28;20572;-73
2021/07/01 21:11:59;;;;;;;14.70;7.80;;;;;;;17.39;90.68;101226.94;10061040;28;20658;-71
2021/07/01 21:16:57;;;;;;;13.38;9.38;;;;;;;17.33;90.58;101231.13;10038889;28;20111;-71
2021/07/01 21:22:08;;;;;;;11.15;8.30;;;;;;;17.29;90.51;101221.94;10052147;28;20703;-72
2021/07/01 21:27:10;;;;;;;13.18;9.20;;;;;;;17.22;90.40;101224.50;10051302;28;20071;-72
2021/07/01 21:32:09;;;;;;;14.43;9.73;;;;;;;17.18;90.05;101234.63;10029164;28;20039;-71
2021/07/01 21:37:09;;;;;;;12.95;8.63;;;;;;;17.14;90.05;101244.78;10035373;28;20051;-72
2021/07/01 21:42:07;;;;;;;14.65;8.75;;;;;;;17.09;89.97;101237.53;10038777;28;20635;-72
2021/07/01 21:47:10;;;;;;;11.23;9.00;;;;;;;17.06;90.06;101242.94;10060821;28;20066;-70
2021/07/01 21:52:07;;;;;;;20.35;10.15;;;;;;;17.00;89.95;101240.44;10062163;28;20064;-73
2021/07/01 21:57:05;;;;;;;11.75;9.02;;;;;;;16.94;89.79;101236.31;10059925;28;20058;-73
2021/07/01 22:02:07;;;;;;;12.57;8.88;;;;;;;16.90;89.85;101248.41;10032488;28;20492;-72
2021/07/01 22:07:05;;;;;;;11.00;8.75;;;;;;;16.87;89.74;101236.06;10062946;28;20134;-73
2021/07/01 22:12:05;;;;;;;14.75;9.95;;;;;;;16.82;89.63;101244.59;10046441;28;20438;-73
2021/07/01 22:17:05;;;;;;;11.25;9.02;;;;;;;16.81;89.58;101248.53;10036597;28;20439;-69
2021/07/01 22:22:05;;;;;;;10.32;8.18;;;;;;;16.79;89.80;101239.78;10059721;28;20143;-70
2021/07/01 22:27:09;;;;;;;13.75;10.38;;;;;;;16.79;90.12;101245.31;10056371;28;20075;-71
2021/07/01 22:32:08;;;;;;;15.57;10.32;;;;;;;16.77;89.98;101244.81;10051141;28;20511;-71
2021/07/01 22:37:11;;;;;;;12.55;9.77;;;;;;;16.74;90.02;101242.75;10058928;28;20144;-74
2021/07/01 22:42:16;;;;;;;16.00;10.55;;;;;;;16.75;90.44;101238.81;10061865;28;20052;-74
2021/07/01 22:47:13;;;;;;;19.15;14.80;;;;;;;16.78;91.72;101254.72;10041544;28;20126;-73
2021/07/01 22:52:13;;;;;;;20.52;15.15;;;;;;;16.80;91.79;101253.25;10067811;28;20051;-73
2021/07/01 22:57:13;;;;;;;30.10;18.58;;;;;;;16.80;92.03;101257.94;10058213;28;20136;-73
2021/07/01 23:02:17;;;;;;;27.60;19.08;;;;;;;16.86;92.64;101255.78;10058034;28;20503;-73
2021/07/01 23:07:14;;;;;;;31.13;20.65;;;;;;;16.91;93.27;101247.25;10065465;28;20052;-71
2021/07/01 23:12:11;;;;;;;38.60;25.23;;;;;;;16.93;93.81;101242.97;10051408;28;20045;-70
2021/07/01 23:17:08;;;;;;;42.42;28.67;;;;;;;16.99;93.94;101238.84;10065048;28;20043;-69
2021/07/01 23:22:05;;;;;;;54.63;31.77;;;;;;;16.97;94.52;101235.59;10068195;28;20077;-69
2021/07/01 23:27:03;;;;;;;54.47;35.13;;;;;;;16.95;94.84;101235.16;10063370;28;20069;-69
2021/07/01 23:32:00;;;;;;;57.78;36.92;;;;;;;16.99;94.55;101241.59;10061810;28;20047;-70
2021/07/01 23:36:57;;;;;;;64.75;39.63;;;;;;;17.03;94.46;101239.75;10053553;28;20527;-70